Chicago Executive Airport (PWK)


Airport Diagram
Current Weather/Forecast (MVFR Conditions)
METAR KPWK 252252Z 26006KT 8SM OVC010 02/M01 A2985 RMK AO2 CIG 008V014 SLP114 T00171006
TAF

All Charts
General
Chart Name Download
AIRPORT DIAGRAM
TAKEOFF MINIMUMS
ALTERNATE MINIMUMS
HOT SPOT
LAHSO

Departures
Chart Name Download
JORJO FIVE (RNAV)
MONKZ FIVE (RNAV)
MONKZ FIVE (RNAV), CONT.1
PAL-WAUKEE FIVE

Approaches
Chart Name Download
ILS OR LOC RWY 16
RNAV (GPS) RWY 16
VOR RWY 16